createdAt,value
2022-12-28T00:01:50.107Z,0.46
2022-12-28T00:06:53.371Z,0.55
2022-12-28T00:11:56.495Z,0.63
2022-12-28T00:16:59.483Z,0.73
2022-12-28T00:22:02.698Z,0.83
2022-12-28T00:27:05.709Z,0.89
2022-12-28T00:32:08.814Z,0.92
2022-12-28T00:37:13.141Z,0.95
2022-12-28T00:42:16.476Z,0.98
2022-12-28T00:47:19.360Z,1.01
2022-12-28T00:52:22.374Z,1.05
2022-12-28T00:57:25.377Z,1.09
2022-12-28T01:02:28.386Z,1.17
2022-12-28T01:07:31.696Z,1.25
2022-12-28T01:12:38.259Z,1.31
2022-12-28T01:17:41.703Z,1.36
2022-12-28T01:22:44.711Z,1.41
2022-12-28T01:27:47.613Z,1.44
2022-12-28T01:32:50.626Z,1.47
2022-12-28T01:37:53.625Z,1.47
2022-12-28T01:42:56.642Z,1.46
2022-12-28T01:47:59.654Z,1.41
2022-12-28T01:53:05.621Z,1.33
2022-12-28T01:58:16.919Z,1.23
2022-12-28T02:03:26.442Z,1.08
2022-12-28T02:09:00.622Z,0.95
2022-12-28T02:14:06.348Z,0.86
2022-12-28T02:19:14.336Z,0.82
2022-12-28T02:24:29.500Z,0.77
2022-12-28T02:29:51.959Z,0.76
2022-12-28T02:35:17.906Z,0.72
2022-12-28T02:40:38.216Z,0.62
2022-12-28T02:46:05.713Z,0.50
2022-12-28T02:51:28.161Z,0.39
2022-12-28T02:56:59.537Z,0.29
2022-12-28T03:02:25.404Z,0.19
2022-12-28T03:08:09.759Z,0.11
2022-12-28T03:13:45.221Z,0.07
2022-12-28T03:19:14.336Z,0.03
2022-12-28T03:24:38.134Z,0.05
2022-12-28T03:30:06.222Z,0.16
2022-12-28T03:35:09.999Z,0.32
2022-12-28T03:40:22.373Z,0.43
2022-12-28T03:45:46.363Z,0.53
2022-12-28T03:50:52.246Z,0.61
2022-12-28T03:56:07.032Z,0.69
2022-12-28T04:01:10.379Z,0.73
2022-12-28T04:06:18.369Z,0.76
2022-12-28T04:11:21.374Z,0.80
2022-12-28T04:16:24.419Z,0.85
2022-12-28T04:21:27.490Z,0.86
2022-12-28T04:26:30.419Z,0.86
2022-12-28T04:31:33.568Z,0.86
2022-12-28T04:36:36.926Z,0.85
2022-12-28T04:41:40.402Z,0.84
2022-12-28T04:46:43.365Z,0.84
2022-12-28T04:51:46.352Z,0.84
2022-12-28T04:56:49.252Z,0.83
2022-12-28T05:01:52.267Z,0.81
2022-12-28T05:06:55.263Z,0.80
2022-12-28T05:11:58.168Z,0.79
2022-12-28T05:17:01.180Z,0.79
2022-12-28T05:22:04.282Z,0.82
2022-12-28T05:27:07.495Z,0.84
2022-12-28T05:32:10.501Z,0.84
2022-12-28T05:37:18.485Z,0.86
2022-12-28T05:42:24.833Z,0.87
2022-12-28T05:47:28.022Z,0.88
2022-12-28T05:52:32.765Z,0.90
2022-12-28T05:57:35.878Z,0.91
2022-12-28T06:02:39.124Z,0.92
2022-12-28T06:07:42.299Z,0.91
2022-12-28T06:12:45.200Z,0.90
2022-12-28T06:17:48.209Z,0.92
2022-12-28T06:22:51.522Z,0.92
2022-12-28T06:27:54.527Z,0.92
2022-12-28T06:32:57.682Z,0.92
2022-12-28T06:38:00.848Z,0.92
2022-12-28T06:43:03.955Z,0.92
2022-12-28T06:48:06.857Z,0.94
2022-12-28T06:53:09.969Z,0.95
2022-12-28T06:58:12.974Z,0.97
2022-12-28T07:03:16.748Z,0.98
2022-12-28T07:08:19.803Z,1.00
2022-12-28T07:13:27.927Z,1.03
2022-12-28T07:18:32.686Z,1.06
2022-12-28T07:23:35.972Z,1.13
2022-12-28T07:28:40.774Z,1.22
2022-12-28T07:33:45.412Z,1.31
2022-12-28T07:38:49.108Z,1.39
2022-12-28T07:43:52.524Z,1.47
2022-12-28T07:48:57.296Z,1.55
2022-12-28T07:54:00.955Z,1.61
2022-12-28T07:59:05.749Z,1.64
2022-12-28T08:04:13.001Z,1.68
2022-12-28T08:09:16.066Z,1.70
2022-12-28T08:14:19.177Z,1.73
2022-12-28T08:19:22.278Z,1.76
2022-12-28T08:24:25.287Z,1.79
2022-12-28T08:29:28.500Z,1.82
2022-12-28T08:34:32.120Z,1.87
2022-12-28T08:39:35.232Z,1.94
2022-12-28T08:44:38.238Z,2.01
2022-12-28T08:49:41.443Z,2.08
2022-12-28T08:54:44.460Z,2.14
2022-12-28T08:59:47.581Z,2.21
2022-12-28T09:04:50.667Z,2.30
2022-12-28T09:09:53.895Z,2.38
2022-12-28T09:14:56.992Z,2.47
2022-12-28T09:20:00.210Z,2.54
2022-12-28T09:25:03.514Z,2.61
2022-12-28T09:30:07.921Z,2.68
2022-12-28T09:35:10.855Z,2.72
2022-12-28T09:40:13.946Z,2.75
2022-12-28T09:45:24.762Z,2.80
2022-12-28T09:50:31.551Z,2.83
2022-12-28T09:55:40.393Z,2.88
2022-12-28T10:00:50.120Z,2.92
2022-12-28T10:05:55.212Z,2.93
2022-12-28T10:11:02.406Z,2.93
2022-12-28T10:16:07.131Z,2.97
2022-12-28T10:21:11.623Z,3.00
2022-12-28T10:26:18.763Z,3.01
2022-12-28T10:31:32.741Z,3.03
2022-12-28T10:36:35.961Z,3.09
2022-12-28T10:41:41.006Z,3.12
2022-12-28T10:47:18.355Z,3.14
2022-12-28T10:52:21.847Z,3.13
2022-12-28T10:57:27.744Z,3.10
2022-12-28T11:02:35.269Z,3.09
2022-12-28T11:07:41.199Z,3.10
2022-12-28T11:12:45.666Z,3.12
2022-12-28T11:17:56.964Z,3.14
2022-12-28T11:23:00.832Z,3.18
2022-12-28T11:28:14.514Z,3.23
2022-12-28T11:33:34.037Z,3.30
2022-12-28T11:38:43.201Z,3.33
2022-12-28T11:44:05.863Z,3.37
2022-12-28T11:49:35.292Z,3.41
2022-12-28T11:54:50.993Z,3.48
2022-12-28T11:59:53.898Z,3.56
2022-12-28T12:04:57.056Z,3.64
2022-12-28T12:10:28.661Z,3.71
2022-12-28T12:15:41.720Z,3.77
2022-12-28T12:20:53.401Z,3.79
2022-12-28T12:26:00.062Z,3.75
2022-12-28T12:31:07.620Z,3.74
2022-12-28T12:36:16.602Z,3.75
2022-12-28T12:41:57.484Z,3.71
2022-12-28T12:47:27.216Z,3.69
2022-12-28T12:53:06.369Z,3.66
2022-12-28T12:58:17.252Z,3.65
2022-12-28T13:03:37.798Z,3.63
2022-12-28T13:08:51.855Z,3.60
2022-12-28T13:13:55.485Z,3.53
2022-12-28T13:19:01.721Z,3.44
2022-12-28T13:24:05.074Z,3.36
2022-12-28T13:29:15.035Z,3.28
2022-12-28T13:34:25.314Z,3.25
2022-12-28T13:39:33.205Z,3.25
2022-12-28T13:44:55.599Z,3.25
2022-12-28T13:50:09.837Z,3.26
2022-12-28T13:55:17.860Z,3.22
2022-12-28T14:00:22.935Z,3.12
2022-12-28T14:05:29.506Z,3.04
2022-12-28T14:10:33.045Z,2.96
2022-12-28T14:15:41.418Z,2.88
2022-12-28T14:20:53.294Z,2.80
2022-12-28T14:25:59.535Z,2.77
2022-12-28T14:31:04.755Z,2.76
2022-12-28T14:36:08.661Z,2.76
2022-12-28T14:41:23.138Z,2.77
2022-12-28T14:46:36.438Z,2.79
2022-12-28T14:51:44.091Z,2.83
2022-12-28T14:56:55.813Z,2.87
2022-12-28T15:01:59.008Z,2.91
2022-12-28T15:07:02.141Z,2.94
2022-12-28T15:12:20.694Z,2.95
2022-12-28T15:17:26.890Z,2.97
2022-12-28T15:22:34.502Z,2.99
2022-12-28T15:27:39.044Z,3.03
2022-12-28T15:32:42.060Z,3.08
2022-12-28T15:37:45.157Z,3.12
2022-12-28T15:42:48.268Z,3.14
2022-12-28T15:47:54.765Z,3.15
2022-12-28T15:52:57.758Z,3.16
2022-12-28T15:58:00.681Z,3.16
2022-12-28T16:03:04.052Z,3.18
2022-12-28T16:08:08.009Z,3.18
2022-12-28T16:13:11.037Z,3.19
2022-12-28T16:18:14.132Z,3.22
2022-12-28T16:23:17.057Z,3.24
2022-12-28T16:28:20.038Z,3.28
2022-12-28T16:33:24.309Z,3.29
2022-12-28T16:38:28.916Z,3.31
2022-12-28T16:43:31.922Z,3.32
2022-12-28T16:48:35.514Z,3.34
2022-12-28T16:53:38.914Z,3.35
2022-12-28T16:58:46.128Z,3.39
2022-12-28T17:03:52.039Z,3.43
2022-12-28T17:08:55.149Z,3.46
2022-12-28T17:14:05.027Z,3.51
2022-12-28T17:19:08.120Z,3.56
2022-12-28T17:24:11.433Z,3.59
2022-12-28T17:29:14.447Z,3.61
2022-12-28T17:34:17.444Z,3.65
2022-12-28T17:39:20.909Z,3.68
2022-12-28T17:44:23.868Z,3.72
2022-12-28T17:49:26.978Z,3.75
2022-12-28T17:54:29.997Z,3.80
2022-12-28T17:59:33.096Z,3.83
2022-12-28T18:04:36.934Z,3.87
2022-12-28T18:09:40.030Z,3.91
2022-12-28T18:14:43.128Z,3.95
2022-12-28T18:19:46.253Z,3.99
2022-12-28T18:24:50.779Z,4.03
2022-12-28T18:29:53.799Z,4.07
2022-12-28T18:34:56.797Z,4.09
2022-12-28T18:39:59.814Z,4.12
2022-12-28T18:45:02.815Z,4.14
2022-12-28T18:50:06.495Z,4.17
2022-12-28T18:55:10.058Z,4.19
2022-12-28T19:00:14.175Z,4.22
2022-12-28T19:05:17.199Z,4.26
2022-12-28T19:10:21.441Z,4.28
2022-12-28T19:15:24.649Z,4.30
2022-12-28T19:20:29.483Z,4.32
2022-12-28T19:25:32.600Z,4.34
2022-12-28T19:30:36.421Z,4.36
2022-12-28T19:35:39.427Z,4.36
2022-12-28T19:40:42.439Z,4.36
2022-12-28T19:45:45.448Z,4.37
2022-12-28T19:50:48.350Z,4.37
2022-12-28T19:55:57.421Z,4.38
2022-12-28T20:01:08.270Z,4.40
2022-12-28T20:06:14.656Z,4.40
2022-12-28T20:11:19.319Z,4.43
2022-12-28T20:16:22.390Z,4.48
2022-12-28T20:21:26.169Z,4.53
2022-12-28T20:26:29.895Z,4.56
2022-12-28T20:31:32.931Z,4.59
2022-12-28T20:36:36.406Z,4.62
2022-12-28T20:41:57.840Z,4.66
2022-12-28T20:47:02.166Z,4.70
2022-12-28T20:52:05.176Z,4.72
2022-12-28T20:57:08.186Z,4.74
2022-12-28T21:02:11.481Z,4.75
2022-12-28T21:07:14.503Z,4.77
2022-12-28T21:12:18.026Z,4.77
2022-12-28T21:17:21.350Z,4.80
2022-12-28T21:22:24.405Z,4.81
2022-12-28T21:27:29.178Z,4.83
2022-12-28T21:32:32.196Z,4.85
2022-12-28T21:37:35.893Z,4.88
2022-12-28T21:42:38.927Z,4.90
2022-12-28T21:47:42.347Z,4.92
2022-12-28T21:52:45.352Z,4.93
2022-12-28T21:57:54.607Z,4.94
2022-12-28T22:03:16.309Z,4.96
2022-12-28T22:08:37.991Z,4.97
2022-12-28T22:13:41.305Z,4.99
2022-12-28T22:19:01.521Z,5.02
2022-12-28T22:24:06.472Z,5.03
2022-12-28T22:29:09.592Z,5.06
2022-12-28T22:34:12.597Z,5.08
2022-12-28T22:39:15.595Z,5.11
2022-12-28T22:44:18.599Z,5.09
2022-12-28T22:49:21.708Z,5.05
2022-12-28T22:54:24.915Z,5.02
2022-12-28T22:59:28.028Z,4.98
2022-12-28T23:04:31.238Z,4.95
2022-12-28T23:09:34.441Z,4.92
2022-12-28T23:14:56.294Z,4.88
2022-12-28T23:20:17.836Z,4.85
2022-12-28T23:25:42.650Z,4.82
2022-12-28T23:30:48.713Z,4.78
2022-12-28T23:35:51.943Z,4.76
2022-12-28T23:41:14.919Z,4.78
2022-12-28T23:46:17.892Z,4.80
2022-12-28T23:51:21.139Z,4.80
2022-12-28T23:56:25.170Z,4.78
